Time;durP1;ratioP1;P1;durP2;ratioP2;P2;SDS_P1;SDS_P2;PMS_P1;PMS_P2;Temp;Humidity;BMP_temperature;BMP_pressure;BME280_temperature;BME280_humidity;BME280_pressure;Samples;Min_cycle;Max_cycle;Signal;HPM_P1;HPM_P2
2022/01/18 00:00:04;;;;;;;;;7.33;6.67;;;;;21.20;45.24;101706.56;113175;1242;22908;-69
2022/01/18 00:02:50;;;;;;;;;9.33;8.33;;;;;21.19;45.05;101705.39;113139;1241;19141;-71
2022/01/18 00:05:16;;;;;;;;;5.00;5.00;;;;;21.20;45.13;101715.29;113114;1242;21039;-69
2022/01/18 00:07:42;;;;;;;;;10.33;8.67;;;;;21.20;44.96;101719.98;113044;1242;19655;-70
2022/01/18 00:10:08;;;;;;;;;9.00;8.00;;;;;21.20;45.23;101727.21;113020;1242;18800;-70
2022/01/18 00:15:36;;;;;;;;;8.00;7.33;;;;;21.19;44.97;101747.86;112903;1242;19381;-69
2022/01/18 00:18:08;;;;;;;;;12.00;10.00;;;;;21.18;45.07;101746.34;113076;1242;21703;-71
2022/01/18 00:20:42;;;;;;;;;8.00;6.67;;;;;21.19;45.13;101753.55;113070;1242;18854;-70
2022/01/18 00:23:09;;;;;;;;;9.67;9.00;;;;;21.18;45.10;101754.51;113102;1242;21087;-68
2022/01/18 00:25:37;;;;;;;;;8.00;8.00;;;;;21.17;45.01;101742.63;113008;1242;19676;-70
2022/01/18 00:28:05;;;;;;;;;7.33;6.00;;;;;21.16;45.02;101744.89;113051;1242;19951;-70
2022/01/18 00:30:52;;;;;;;;;9.67;8.00;;;;;21.16;44.92;101754.88;113044;1242;19424;-70
2022/01/18 00:33:23;;;;;;;;;8.33;6.00;;;;;21.16;45.08;101761.96;113042;1242;20042;-69
2022/01/18 00:35:57;;;;;;;;;8.33;6.00;;;;;21.16;44.96;101765.98;113038;1242;19837;-70
2022/01/18 00:38:30;;;;;;;;;9.00;8.00;;;;;21.16;45.09;101773.75;113049;1242;19518;-68
2022/01/18 00:40:56;;;;;;;;;8.33;8.00;;;;;21.16;44.89;101773.85;113041;1241;18443;-71
2022/01/18 00:43:22;;;;;;;;;9.00;7.00;;;;;21.16;44.93;101774.70;113038;1242;18420;-70
2022/01/18 00:45:48;;;;;;;;;9.00;8.00;;;;;21.17;45.03;101777.00;113121;1242;19208;-70
2022/01/18 00:48:14;;;;;;;;;10.00;9.00;;;;;21.17;45.01;101787.17;113118;1241;22371;-71
2022/01/18 00:50:40;;;;;;;;;8.50;8.00;;;;;21.16;44.84;101800.29;113049;1242;23341;-69
2022/01/18 00:53:10;;;;;;;;;8.00;5.00;;;;;21.16;44.97;101808.83;113135;1242;19210;-72
2022/01/18 00:55:47;;;;;;;;;9.00;6.67;;;;;21.16;45.02;101811.10;113137;1241;19711;-69
2022/01/18 00:58:13;;;;;;;;;7.33;6.67;;;;;21.14;45.00;101802.51;113065;1242;19934;-70
2022/01/18 01:00:39;;;;;;;;;6.00;6.00;;;;;21.15;44.85;101802.85;113127;1242;19331;-69
2022/01/18 01:03:05;;;;;;;;;8.00;6.00;;;;;21.15;44.96;101794.61;113084;1242;22929;-72
2022/01/18 01:05:31;;;;;;;;;8.00;8.00;;;;;21.15;44.93;101799.75;113070;1242;18839;-71
2022/01/18 01:07:57;;;;;;;;;8.00;6.00;;;;;21.15;44.94;101808.48;113019;1242;19365;-72
2022/01/18 01:10:23;;;;;;;;;8.00;7.00;;;;;21.14;44.95;101813.14;113020;1242;22036;-70
2022/01/18 01:12:49;;;;;;;;;5.00;5.00;;;;;21.13;44.84;101817.91;113074;1242;19178;-71
2022/01/18 01:15:17;;;;;;;;;9.00;8.00;;;;;21.14;44.93;101818.18;113089;1241;20726;-70
2022/01/18 01:17:49;;;;;;;;;11.33;6.67;;;;;21.13;44.88;101811.70;113046;1241;19864;-70
2022/01/18 01:34:26;;;;;;;;;8.00;6.00;;;;;21.12;44.93;101819.12;113105;1242;21552;-72
2022/01/18 01:41:41;;;;;;;;;6.00;6.00;;;;;21.12;44.74;101819.89;113058;1242;18998;-73
2022/01/18 01:42:57;;;;;;;;;5.00;5.00;;;;;21.10;45.06;101829.34;113047;1242;18709;-71
2022/01/18 01:45:25;;;;;;;;;6.00;6.00;;;;;21.10;44.78;101823.27;113022;1242;21561;-71
2022/01/18 01:47:52;;;;;;;;;6.00;5.00;;;;;21.09;44.93;101817.04;113083;1242;19618;-71
2022/01/18 01:50:20;;;;;;;;;5.00;5.00;;;;;21.09;44.93;101815.74;113121;1242;18493;-71
2022/01/18 01:52:46;;;;;;;;;6.00;5.67;;;;;21.08;45.02;101815.60;113093;1242;22157;-71
2022/01/18 01:55:13;;;;;;;;;9.00;6.00;;;;;21.09;44.72;101810.09;113072;1241;19479;-72
2022/01/18 01:57:39;;;;;;;;;5.50;5.00;;;;;21.09;44.70;101815.77;113054;1242;18559;-72
2022/01/18 02:00:05;;;;;;;;;4.00;4.00;;;;;21.08;44.79;101821.83;113066;1241;19076;-71
2022/01/18 02:02:30;;;;;;;;;6.00;6.00;;;;;21.10;44.72;101823.48;113049;1242;19534;-70
2022/01/18 02:04:56;;;;;;;;;5.00;5.00;;;;;21.09;44.70;101820.31;113064;1241;18660;-72
2022/01/18 02:07:22;;;;;;;;;6.00;6.00;;;;;21.07;44.79;101820.13;113040;1241;19050;-70
2022/01/18 02:09:48;;;;;;;;;9.00;6.00;;;;;21.07;44.70;101821.38;113047;1242;22439;-71
2022/01/18 02:12:14;;;;;;;;;4.50;4.50;;;;;21.07;44.66;101819.89;113031;1241;18724;-71
2022/01/18 02:14:40;;;;;;;;;5.00;5.00;;;;;21.08;44.84;101814.58;113040;1242;18628;-71
2022/01/18 02:22:35;;;;;;;;;4.33;4.33;;;;;21.08;44.72;101819.08;113067;1242;18605;-69
2022/01/18 02:25:01;;;;;;;;;9.00;8.50;;;;;21.08;44.64;101819.41;113022;1242;19513;-72
2022/01/18 02:27:28;;;;;;;;;5.50;5.00;;;;;21.09;44.80;101830.13;113064;1242;22210;-71
2022/01/18 02:29:54;;;;;;;;;6.00;5.00;;;;;21.09;44.58;101834.10;113051;1242;18852;-71
2022/01/18 02:32:20;;;;;;;;;6.00;5.00;;;;;21.07;44.63;101827.52;113079;1242;20736;-68
2022/01/18 02:34:46;;;;;;;;;5.00;4.50;;;;;21.04;44.91;101823.88;113029;1242;18817;-71
2022/01/18 02:37:14;;;;;;;;;4.00;4.00;;;;;21.06;44.80;101821.54;113046;1241;23460;-71
2022/01/18 02:39:42;;;;;;;;;6.00;5.50;;;;;21.06;44.68;101821.45;113045;1242;19535;-71
2022/01/18 02:42:08;;;;;;;;;6.00;6.00;;;;;21.06;44.83;101822.20;113056;1242;18642;-71
2022/01/18 02:44:34;;;;;;;;;6.00;6.00;;;;;21.06;44.67;101824.27;113178;1242;22109;-71
2022/01/18 02:46:59;;;;;;;;;5.00;5.00;;;;;21.06;44.75;101828.91;113130;1242;19427;-71
2022/01/18 02:49:25;;;;;;;;;5.00;5.00;;;;;21.05;44.71;101821.42;113068;1242;23142;-70
2022/01/18 02:51:51;;;;;;;;;5.50;5.00;;;;;21.05;44.66;101821.55;113028;1241;18537;-70
2022/01/18 02:54:17;;;;;;;;;5.50;4.50;;;;;21.06;44.77;101830.37;113085;1242;21772;-71
2022/01/18 02:56:45;;;;;;;;;5.00;5.00;;;;;21.07;44.79;101822.14;113021;1242;18271;-69
2022/01/18 02:59:18;;;;;;;;;5.67;5.00;;;;;21.03;44.68;101816.95;113081;1242;21478;-71
2022/01/18 03:04:28;;;;;;;;;6.33;5.00;;;;;21.06;44.68;101838.77;113367;1242;19294;-70
2022/01/18 03:06:54;;;;;;;;;5.50;5.00;;;;;21.07;44.58;101848.65;113071;1242;18699;-70
2022/01/18 03:09:19;;;;;;;;;5.50;4.00;;;;;21.09;44.65;101852.67;113054;1242;20703;-68
2022/01/18 03:11:45;;;;;;;;;9.00;8.00;;;;;21.10;44.61;101852.92;113065;1241;19261;-68
2022/01/18 03:14:11;;;;;;;;;4.50;4.00;;;;;21.08;44.58;101854.20;113041;1242;19026;-70
2022/01/18 03:16:37;;;;;;;;;5.00;5.00;;;;;21.07;44.54;101861.73;113046;1242;22143;-71
2022/01/18 03:19:03;;;;;;;;;4.50;4.00;;;;;21.06;44.56;101860.95;113039;1241;18266;-71
2022/01/18 03:21:29;;;;;;;;;4.00;4.00;;;;;21.06;44.60;101856.02;113073;1242;19145;-70
2022/01/18 03:24:10;;;;;;;;;4.50;4.00;;;;;21.06;44.46;101856.55;113052;1241;19768;-69
2022/01/18 03:28:03;;;;;;;;;6.00;5.67;;;;;21.06;44.78;101855.70;113083;1241;18710;-70
2022/01/18 03:29:22;;;;;;;;;5.00;4.00;;;;;21.05;44.60;101855.80;113017;1242;18649;-69
2022/01/18 03:31:48;;;;;;;;;8.00;6.00;;;;;21.04;44.67;101861.27;113103;1241;19197;-70
2022/01/18 03:34:14;;;;;;;;;5.00;5.00;;;;;21.05;44.41;101868.14;113037;1242;18573;-69
2022/01/18 03:36:40;;;;;;;;;5.50;5.00;;;;;21.04;44.59;101869.27;113075;1241;19076;-69
2022/01/18 03:39:06;;;;;;;;;6.00;5.00;;;;;21.04;44.74;101868.23;113104;1241;19948;-70
2022/01/18 03:41:31;;;;;;;;;8.00;5.00;;;;;21.03;44.70;101872.07;113108;1242;18465;-70
2022/01/18 03:43:57;;;;;;;;;5.00;5.00;;;;;21.02;44.59;101874.09;113071;1241;19125;-70
2022/01/18 03:46:24;;;;;;;;;6.00;5.00;;;;;21.01;44.72;101877.73;113047;1242;21257;-71
2022/01/18 03:48:51;;;;;;;;;4.67;4.00;;;;;21.02;44.58;101882.01;113124;1242;19776;-70
2022/01/18 03:51:17;;;;;;;;;5.00;5.00;;;;;21.02;44.66;101886.25;113128;1241;19483;-69
2022/01/18 03:53:43;;;;;;;;;5.00;4.00;;;;;21.02;44.49;101892.36;113071;1242;19330;-70
2022/01/18 03:56:09;;;;;;;;;5.50;4.50;;;;;21.02;44.39;101891.71;113040;1241;18430;-70
2022/01/18 03:58:35;;;;;;;;;4.00;4.00;;;;;21.00;44.59;101895.48;113041;1242;18380;-70
2022/01/18 04:01:01;;;;;;;;;5.00;5.00;;;;;21.01;44.45;101903.73;113035;1242;21322;-70
2022/01/18 04:03:27;;;;;;;;;5.00;5.00;;;;;21.01;44.74;101911.81;113119;1242;18717;-69
2022/01/18 04:05:53;;;;;;;;;5.00;4.50;;;;;21.01;44.53;101914.13;113039;1242;18578;-72
2022/01/18 04:08:18;;;;;;;;;4.00;4.00;;;;;21.02;44.54;101924.20;113080;1242;20664;-71
2022/01/18 04:10:44;;;;;;;;;3.00;3.00;;;;;21.02;44.47;101920.77;113050;1242;18646;-71
2022/01/18 04:13:10;;;;;;;;;5.00;5.00;;;;;21.01;44.46;101907.55;113045;1242;18424;-72
2022/01/18 04:15:36;;;;;;;;;8.00;4.00;;;;;21.01;44.53;101901.63;113108;1241;20896;-72
2022/01/18 04:18:18;;;;;;;;;4.00;4.00;;;;;21.00;44.44;101904.24;113095;1242;19065;-72
2022/01/18 04:28:57;;;;;;;;;4.00;4.00;;;;;21.02;44.45;101923.65;113037;1242;22170;-70
2022/01/18 04:31:23;;;;;;;;;5.00;5.00;;;;;21.02;44.51;101923.67;113128;1242;19343;-69
2022/01/18 04:33:49;;;;;;;;;4.00;4.00;;;;;21.01;44.53;101925.03;113083;1242;20946;-69
2022/01/18 04:36:15;;;;;;;;;5.00;4.00;;;;;21.01;44.54;101927.83;113108;1242;18461;-69
2022/01/18 04:38:41;;;;;;;;;5.00;4.00;;;;;21.01;44.51;101937.95;113091;1242;21068;-70
2022/01/18 04:41:09;;;;;;;;;5.00;4.00;;;;;21.01;44.36;101943.91;113084;1242;18398;-70
2022/01/18 04:43:50;;;;;;;;;5.67;4.00;;;;;21.02;44.41;101947.48;113124;1242;19157;-70
2022/01/18 04:49:00;;;;;;;;;4.00;4.00;;;;;21.00;44.31;101957.63;113019;1242;20390;-70
2022/01/18 04:51:26;;;;;;;;;5.00;5.00;;;;;21.00;44.40;101966.22;113076;1242;18653;-67
2022/01/18 04:53:54;;;;;;;;;6.00;5.00;;;;;21.00;44.44;101967.13;113095;1242;21647;-69
2022/01/18 04:56:28;;;;;;;;;5.00;4.00;;;;;20.96;44.33;101966.80;113069;1241;22070;-68
2022/01/18 04:58:54;;;;;;;;;4.00;4.00;;;;;20.99;44.40;101972.27;113040;1242;20230;-69
2022/01/18 05:01:20;;;;;;;;;5.00;4.00;;;;;21.00;44.28;101972.04;113019;1242;19160;-69
2022/01/18 05:03:46;;;;;;;;;5.00;4.00;;;;;20.96;44.16;101968.09;113093;1241;21065;-70
2022/01/18 05:06:12;;;;;;;;;5.00;5.00;;;;;20.99;44.34;101979.94;113163;1242;20536;-67
2022/01/18 05:08:38;;;;;;;;;4.67;4.00;;;;;20.99;44.48;101985.19;113092;1241;19404;-72
2022/01/18 05:11:05;;;;;;;;;4.00;4.00;;;;;20.99;44.40;101983.22;113063;1242;19965;-71
2022/01/18 05:13:52;;;;;;;;;5.00;4.00;;;;;20.99;44.36;101983.59;113004;1242;19218;-71
2022/01/18 05:16:40;;;;;;;;;6.00;5.33;;;;;20.99;44.25;101987.73;113038;1241;20917;-69
2022/01/18 05:19:13;;;;;;;;;5.00;4.50;;;;;20.99;44.46;101985.58;112993;1242;20141;-69
2022/01/18 05:24:19;;;;;;;;;7.00;5.50;;;;;20.99;44.34;101993.16;113060;1242;19685;-70
2022/01/18 05:26:45;;;;;;;;;4.00;4.00;;;;;20.99;44.31;101995.38;113139;1242;18255;-70
2022/01/18 05:29:11;;;;;;;;;5.00;5.00;;;;;20.99;44.30;102000.45;113173;1241;22029;-71
2022/01/18 05:31:37;;;;;;;;;4.00;4.00;;;;;20.99;44.38;102002.05;113105;1242;19753;-70
2022/01/18 05:34:03;;;;;;;;;5.00;4.00;;;;;20.98;44.41;102006.70;113114;1241;18962;-71
2022/01/18 05:36:29;;;;;;;;;6.00;4.00;;;;;20.99;44.39;102005.00;113056;1242;18417;-70
2022/01/18 05:38:55;;;;;;;;;5.00;5.00;;;;;20.98;44.49;102011.32;112930;1241;19475;-70
2022/01/18 05:41:21;;;;;;;;;5.00;4.00;;;;;20.98;44.52;102020.69;113003;1241;18271;-71
2022/01/18 05:43:46;;;;;;;;;6.00;4.00;;;;;20.99;44.28;102022.65;113017;1242;18781;-70
2022/01/18 05:46:12;;;;;;;;;4.00;4.00;;;;;20.99;44.28;102025.34;113040;1242;23235;-73
2022/01/18 05:48:38;;;;;;;;;6.00;5.00;;;;;20.94;44.40;102024.00;113019;1241;18714;-71
2022/01/18 05:51:04;;;;;;;;;5.00;5.00;;;;;20.98;44.34;102032.39;113049;1242;18602;-70
2022/01/18 05:53:30;;;;;;;;;5.50;5.50;;;;;20.98;44.42;102039.09;113010;1241;19248;-70
2022/01/18 05:55:56;;;;;;;;;5.00;5.00;;;;;20.98;44.31;102040.33;112999;1242;18474;-72
2022/01/18 05:58:22;;;;;;;;;5.00;5.00;;;;;20.94;44.36;102043.28;113064;1242;19197;-72
2022/01/18 06:00:52;;;;;;;;;5.50;5.00;;;;;20.98;44.20;102059.45;113053;1241;19257;-71
2022/01/18 06:03:26;;;;;;;;;5.00;4.67;;;;;20.98;44.47;102066.86;112994;1242;20309;-70
2022/01/18 06:08:36;;;;;;;;;8.00;6.00;;;;;20.97;44.29;102073.66;113009;1241;19602;-71
2022/01/18 06:11:02;;;;;;;;;6.00;6.00;;;;;20.97;44.37;102079.73;113029;1242;18338;-70
2022/01/18 06:13:29;;;;;;;;;6.00;5.00;;;;;20.95;44.41;102079.13;113003;1241;18864;-70
2022/01/18 06:15:54;;;;;;;;;8.00;6.00;;;;;20.97;44.53;102085.55;113046;1242;19430;-71
2022/01/18 06:18:22;;;;;;;;;5.00;5.00;;;;;20.98;44.20;102090.91;113027;1242;18738;-71
2022/01/18 06:20:48;;;;;;;;;5.00;5.00;;;;;20.97;44.36;102096.77;113048;1241;20084;-70
2022/01/18 06:23:14;;;;;;;;;6.00;5.00;;;;;20.98;44.45;102100.00;113026;1242;19774;-70
2022/01/18 06:25:39;;;;;;;;;4.67;4.67;;;;;20.97;44.35;102102.62;113071;1241;19623;-70
2022/01/18 06:28:05;;;;;;;;;5.00;4.00;;;;;20.97;44.38;102104.39;112991;1242;18339;-71
2022/01/18 06:30:31;;;;;;;;;4.50;4.50;;;;;20.97;44.42;102105.17;112958;1242;23574;-71
2022/01/18 06:32:57;;;;;;;;;4.50;4.00;;;;;20.96;44.42;102105.41;112990;1241;18741;-71
2022/01/18 06:35:23;;;;;;;;;5.50;4.00;;;;;20.98;44.40;102106.34;112973;1242;21735;-70
2022/01/18 06:37:49;;;;;;;;;5.00;4.00;;;;;20.99;44.49;102108.05;113076;1242;19468;-71
2022/01/18 06:40:15;;;;;;;;;5.00;5.00;;;;;21.00;44.24;102113.45;113039;1241;18562;-73
2022/01/18 06:42:41;;;;;;;;;5.67;4.67;;;;;21.00;44.32;102115.94;113069;1242;18596;-73
2022/01/18 06:45:07;;;;;;;;;5.00;5.00;;;;;20.99;44.48;102121.33;113026;1242;21266;-71
2022/01/18 06:47:33;;;;;;;;;5.00;5.00;;;;;21.04;44.46;102138.09;113027;1241;18278;-71
2022/01/18 06:49:59;;;;;;;;;5.00;5.00;;;;;21.11;44.46;102147.06;113025;1242;18417;-71
2022/01/18 06:52:24;;;;;;;;;9.50;7.00;;;;;21.16;44.91;102153.14;113045;1241;19158;-72
2022/01/18 06:54:50;;;;;;;;;5.00;5.00;;;;;21.18;44.92;102156.04;113021;1242;19519;-71
2022/01/18 06:57:16;;;;;;;;;5.00;5.00;;;;;21.20;45.25;102164.08;112971;1242;23111;-72
2022/01/18 06:59:42;;;;;;;;;8.00;6.00;;;;;21.25;46.65;102169.14;113016;1241;19173;-77
2022/01/18 07:02:08;;;;;;;;;7.00;7.00;;;;;21.30;47.26;102170.91;113031;1241;19452;-72
2022/01/18 07:04:34;;;;;;;;;5.00;5.00;;;;;21.31;46.98;102171.92;113072;1242;18554;-73
2022/01/18 07:07:00;;;;;;;;;9.33;6.67;;;;;21.30;47.04;102171.61;113048;1241;19526;-72
2022/01/18 07:09:26;;;;;;;;;6.67;6.00;;;;;21.29;47.33;102178.10;113072;1242;19070;-71
2022/01/18 07:11:52;;;;;;;;;6.00;6.00;;;;;21.32;47.50;102178.79;113044;1241;19906;-80
2022/01/18 07:14:18;;;;;;;;;5.00;5.00;;;;;21.32;47.57;102183.46;113070;1241;19701;-78
2022/01/18 07:16:44;;;;;;;;;7.00;5.00;;;;;21.33;47.83;102183.88;113049;1242;18804;-77
2022/01/18 07:19:10;;;;;;;;;6.00;6.00;;;;;21.33;47.51;102190.23;113031;1242;18573;-78
2022/01/18 07:21:36;;;;;;;;;9.50;9.00;;;;;21.33;47.25;102202.39;113051;1242;19424;-76
2022/01/18 07:24:05;;;;;;;;;7.00;6.00;;;;;21.37;47.59;102205.89;113016;1242;18668;-77
2022/01/18 07:26:31;;;;;;;;;6.67;6.00;;;;;21.35;47.71;102200.41;113047;1242;19452;-77
2022/01/18 07:28:57;;;;;;;;;8.00;8.00;;;;;21.39;47.64;102206.61;112995;1242;19216;-75
2022/01/18 07:31:22;;;;;;;;;8.00;6.00;;;;;21.38;47.84;102206.33;113022;1242;20199;-78
2022/01/18 07:33:48;;;;;;;;;9.50;8.00;;;;;21.40;48.07;102205.48;113009;1242;18723;-75
2022/01/18 07:36:14;;;;;;;;;9.00;9.00;;;;;21.43;47.91;102203.55;113025;1242;19211;-78
2022/01/18 07:38:40;;;;;;;;;12.00;9.00;;;;;21.44;47.77;102207.39;112997;1241;20020;-71
2022/01/18 07:41:06;;;;;;;;;8.00;8.00;;;;;21.43;47.83;102215.52;113017;1242;18570;-69
2022/01/18 07:43:32;;;;;;;;;11.00;10.00;;;;;21.42;47.61;102225.09;113023;1240;20462;-71
2022/01/18 07:45:58;;;;;;;;;8.00;8.00;;;;;21.38;47.71;102232.31;113103;1241;18664;-70
2022/01/18 07:48:24;;;;;;;;;9.50;9.00;;;;;21.38;47.98;102242.02;113127;1242;22310;-73
2022/01/18 07:50:51;;;;;;;;;12.67;9.33;;;;;21.37;48.11;102247.58;113072;1242;22633;-70
2022/01/18 07:53:17;;;;;;;;;12.00;9.00;;;;;21.36;47.90;102255.63;113007;1242;19633;-71
2022/01/18 07:55:42;;;;;;;;;10.00;9.00;;;;;21.34;48.30;102258.58;113074;1242;18417;-72
2022/01/18 07:58:08;;;;;;;;;11.00;10.00;;;;;21.39;48.32;102265.21;113043;1242;19196;-70
2022/01/18 08:00:34;;;;;;;;;10.00;10.00;;;;;21.40;48.36;102267.09;113134;1242;18554;-71
2022/01/18 08:03:00;;;;;;;;;12.00;9.00;;;;;21.40;48.49;102267.69;113034;1242;19027;-71
2022/01/18 08:05:26;;;;;;;;;10.00;9.00;;;;;21.38;48.52;102270.90;113051;1241;20657;-69
2022/01/18 08:07:52;;;;;;;;;13.00;11.00;;;;;21.39;48.63;102273.16;113014;1241;19088;-73
2022/01/18 08:10:18;;;;;;;;;14.00;12.67;;;;;21.39;48.75;102272.86;113049;1241;18762;-71
2022/01/18 08:12:44;;;;;;;;;12.33;10.67;;;;;21.38;48.62;102275.98;113104;1242;19523;-70
2022/01/18 08:15:15;;;;;;;;;14.00;14.00;;;;;21.38;48.46;102275.79;113084;1242;18630;-71
2022/01/18 08:17:41;;;;;;;;;18.67;15.33;;;;;21.38;48.60;102275.85;113121;1242;19833;-70
2022/01/18 08:20:07;;;;;;;;;14.00;13.50;;;;;21.39;48.66;102279.55;113016;1242;19229;-77
2022/01/18 08:22:33;;;;;;;;;17.50;16.00;;;;;21.44;48.49;102280.33;113032;1242;19173;-75
2022/01/18 08:24:59;;;;;;;;;14.00;13.00;;;;;21.50;48.30;102281.96;113041;1242;18524;-74
2022/01/18 08:27:25;;;;;;;;;16.00;13.00;;;;;21.63;48.35;102287.70;112997;1241;19107;-72
2022/01/18 08:29:50;;;;;;;;;16.00;12.00;;;;;21.68;48.21;102289.55;113042;1241;19121;-69
2022/01/18 08:32:16;;;;;;;;;16.00;14.00;;;;;21.62;47.53;102285.71;112987;1242;21020;-69
2022/01/18 08:34:42;;;;;;;;;18.50;16.50;;;;;21.60;47.18;102293.41;113022;1242;19887;-71
2022/01/18 08:37:08;;;;;;;;;26.00;24.00;;;;;21.54;46.17;102296.87;112977;1241;23576;-71
2022/01/18 08:39:34;;;;;;;;;76.67;56.33;;;;;21.48;45.60;102300.30;112940;1242;19205;-70
2022/01/18 08:42:00;;;;;;;;;76.67;54.67;;;;;21.43;45.15;102302.23;112965;1241;19180;-69
2022/01/18 08:44:26;;;;;;;;;71.67;51.67;;;;;21.42;45.66;102307.13;113033;1242;19015;-69
2022/01/18 08:46:52;;;;;;;;;102.33;71.67;;;;;21.44;45.79;102312.03;112959;1242;18802;-70
2022/01/18 08:49:18;;;;;;;;;104.00;78.33;;;;;21.46;45.38;102316.91;113027;1241;20564;-69
2022/01/18 08:51:44;;;;;;;;;105.00;75.00;;;;;21.46;45.11;102318.20;113020;1241;20430;-69
2022/01/18 08:54:10;;;;;;;;;101.00;74.33;;;;;21.47;44.35;102316.80;112982;1242;18438;-68
2022/01/18 08:56:35;;;;;;;;;105.33;78.00;;;;;21.49;44.39;102322.46;112976;1242;19184;-67
2022/01/18 08:59:01;;;;;;;;;103.00;75.67;;;;;21.48;44.13;102326.16;113039;1242;23005;-69
2022/01/18 09:01:27;;;;;;;;;92.00;63.67;;;;;21.49;43.37;102338.29;113108;1241;18775;-69
2022/01/18 09:03:53;;;;;;;;;87.00;61.00;;;;;21.59;42.69;102338.20;112902;1241;19172;-68
2022/01/18 09:06:19;;;;;;;;;85.67;62.33;;;;;21.65;42.46;102343.91;113031;1242;19149;-68
2022/01/18 09:08:54;;;;;;;;;82.00;61.33;;;;;21.62;42.26;102347.02;113054;1242;19335;-69
2022/01/18 09:11:20;;;;;;;;;80.00;57.33;;;;;21.55;42.43;102355.34;113041;1242;19379;-69
2022/01/18 09:13:46;;;;;;;;;73.00;56.50;;;;;21.50;42.81;102355.63;112898;1242;24220;-68
2022/01/18 09:16:12;;;;;;;;;74.00;55.67;;;;;21.49;42.38;102362.05;113028;1242;20405;-70
2022/01/18 09:18:38;;;;;;;;;69.33;52.33;;;;;21.47;42.21;102369.72;113032;1242;19147;-68
2022/01/18 09:21:04;;;;;;;;;57.00;45.50;;;;;21.46;42.17;102372.88;113010;1242;22166;-68
2022/01/18 09:23:30;;;;;;;;;66.33;49.00;;;;;21.47;41.45;102371.42;113075;1241;18834;-69
2022/01/18 09:25:55;;;;;;;;;63.00;46.00;;;;;21.45;40.27;102374.08;113025;1242;19935;-68
2022/01/18 09:28:21;;;;;;;;;48.67;41.00;;;;;21.44;40.15;102369.29;112980;1241;19218;-72
2022/01/18 09:30:47;;;;;;;;;58.00;43.33;;;;;21.43;39.93;102370.87;113004;1241;18665;-69
2022/01/18 09:33:13;;;;;;;;;54.00;41.33;;;;;21.43;40.21;102367.42;112997;1242;19166;-67
2022/01/18 09:35:39;;;;;;;;;43.00;35.50;;;;;21.44;39.88;102367.51;113104;1242;19795;-71
2022/01/18 09:38:05;;;;;;;;;39.00;31.50;;;;;21.43;39.43;102373.42;113005;1242;18531;-71
2022/01/18 09:40:33;;;;;;;;;36.50;32.00;;;;;21.50;39.66;102378.38;112998;1242;19038;-72
2022/01/18 09:43:00;;;;;;;;;40.50;37.50;;;;;21.64;39.85;102386.88;112995;1241;18651;-73
2022/01/18 09:45:26;;;;;;;;;38.00;31.00;;;;;21.72;40.30;102385.10;112845;1242;21029;-72
2022/01/18 09:47:52;;;;;;;;;34.50;27.00;;;;;21.79;40.94;102382.55;113001;1241;19313;-73
2022/01/18 09:50:18;;;;;;;;;40.00;30.50;;;;;21.84;41.22;102384.84;112905;1242;18391;-72
2022/01/18 09:52:47;;;;;;;;;42.50;32.50;;;;;21.86;41.73;102388.12;113038;1242;18561;-72
2022/01/18 09:55:14;;;;;;;;;37.33;33.67;;;;;21.90;42.07;102392.66;113004;1241;19369;-75
2022/01/18 09:57:39;;;;;;;;;31.50;28.00;;;;;21.95;42.44;102390.95;112929;1242;18523;-75
2022/01/18 10:00:05;;;;;;;;;36.00;31.00;;;;;21.97;42.66;102397.60;113014;1241;20366;-80
2022/01/18 10:02:31;;;;;;;;;37.00;29.50;;;;;21.99;42.99;102400.31;113060;1241;19205;-69
2022/01/18 10:04:59;;;;;;;;;33.00;28.50;;;;;21.98;43.04;102402.61;113003;1242;18381;-69
2022/01/18 10:07:25;;;;;;;;;33.67;29.33;;;;;21.94;43.23;102402.80;113005;1242;19221;-75
2022/01/18 10:09:51;;;;;;;;;34.00;29.00;;;;;21.92;43.23;102408.83;112942;1241;19169;-70
2022/01/18 10:12:17;;;;;;;;;35.00;31.50;;;;;21.91;43.41;102410.23;113038;1242;18474;-71
2022/01/18 10:14:43;;;;;;;;;41.00;34.00;;;;;21.86;43.33;102416.41;113062;1241;18691;-70
2022/01/18 10:17:10;;;;;;;;;32.33;28.33;;;;;21.82;43.54;102420.10;113025;1241;19437;-70
2022/01/18 10:19:37;;;;;;;;;35.00;28.00;;;;;21.79;43.50;102415.90;113069;1241;19755;-70
2022/01/18 10:22:02;;;;;;;;;29.67;25.00;;;;;21.76;43.71;102413.05;113041;1242;18752;-69
2022/01/18 10:24:30;;;;;;;;;32.50;29.00;;;;;21.75;43.65;102415.92;113079;1242;19203;-70
2022/01/18 10:26:56;;;;;;;;;31.33;24.67;;;;;21.71;43.60;102416.63;113313;1242;20140;-69
2022/01/18 10:29:22;;;;;;;;;26.00;24.00;;;;;21.69;43.81;102412.21;113011;1242;23319;-71
2022/01/18 10:31:57;;;;;;;;;27.00;25.00;;;;;21.68;43.77;102412.93;113034;1242;19867;-70
2022/01/18 10:34:27;;;;;;;;;28.00;24.00;;;;;21.66;43.77;102411.25;113020;1242;18749;-71
2022/01/18 10:36:53;;;;;;;;;26.33;21.67;;;;;21.65;43.94;102413.20;113029;1242;19458;-72
2022/01/18 10:39:19;;;;;;;;;29.33;25.00;;;;;21.64;43.87;102418.17;113020;1242;19514;-72
2022/01/18 10:41:46;;;;;;;;;32.00;25.50;;;;;21.62;43.95;102417.33;113053;1241;19493;-72
2022/01/18 10:44:12;;;;;;;;;31.00;24.50;;;;;21.60;43.92;102421.09;113122;1242;23950;-70
2022/01/18 10:46:38;;;;;;;;;30.00;25.00;;;;;21.58;43.95;102419.67;113104;1241;19896;-70
2022/01/18 10:49:04;;;;;;;;;24.50;22.00;;;;;21.55;44.02;102423.87;113022;1241;22365;-69
2022/01/18 10:51:30;;;;;;;;;22.00;20.67;;;;;21.54;43.99;102420.51;113060;1242;19254;-71
2022/01/18 10:53:56;;;;;;;;;24.00;21.50;;;;;21.55;43.98;102420.05;112947;1242;22990;-72
2022/01/18 10:56:22;;;;;;;;;25.33;23.67;;;;;21.55;43.73;102418.46;113089;1242;18745;-70
2022/01/18 10:58:48;;;;;;;;;21.00;20.00;;;;;21.41;43.06;102417.01;112967;1242;18560;-70
2022/01/18 11:01:14;;;;;;;;;21.00;19.50;;;;;20.91;41.81;102422.79;113123;1241;21328;-71
2022/01/18 11:03:40;;;;;;;;;21.00;18.50;;;;;20.57;41.77;102422.96;112939;1241;18662;-70
2022/01/18 11:06:06;;;;;;;;;19.00;17.00;;;;;20.42;41.11;102425.70;112984;1242;20612;-72
2022/01/18 11:08:32;;;;;;;;;31.00;24.50;;;;;20.45;40.54;102422.88;113055;1241;19351;-70
2022/01/18 11:10:57;;;;;;;;;49.00;39.33;;;;;20.40;39.74;102420.27;113009;1242;19773;-73
2022/01/18 11:13:24;;;;;;;;;115.00;97.00;;;;;20.24;39.70;102416.33;112990;1241;19243;-70
2022/01/18 11:16:01;;;;;;;;;213.00;171.00;;;;;20.08;39.33;102416.87;113015;1242;20125;-71
2022/01/18 11:18:30;;;;;;;;;336.25;276.75;;;;;19.97;37.62;102424.27;112988;1242;19457;-70
2022/01/18 11:20:56;;;;;;;;;295.25;226.50;;;;;19.84;36.96;102430.48;113070;1242;18836;-71
2022/01/18 11:23:22;;;;;;;;;237.25;193.00;;;;;19.89;36.68;102428.09;112943;1242;19643;-70
2022/01/18 11:25:48;;;;;;;;;220.50;183.75;;;;;20.00;36.76;102422.99;112998;1241;22414;-70
2022/01/18 11:28:15;;;;;;;;;226.75;191.25;;;;;20.18;37.33;102425.02;113021;1242;19436;-71
2022/01/18 11:30:41;;;;;;;;;168.25;134.75;;;;;20.38;38.26;102425.30;112543;1242;572789;-71
2022/01/18 11:33:07;;;;;;;;;143.00;117.00;;;;;20.43;38.23;102428.97;113388;1241;24205;-70
2022/01/18 11:35:32;;;;;;;;;139.33;120.67;;;;;20.42;37.97;102431.27;112831;1242;18611;-69
2022/01/18 11:37:58;;;;;;;;;125.33;101.33;;;;;20.52;38.34;102420.67;113193;1242;19203;-71
2022/01/18 11:40:24;;;;;;;;;107.33;90.67;;;;;20.62;38.57;102424.16;113313;1241;18790;-70
2022/01/18 11:42:50;;;;;;;;;105.00;83.67;;;;;20.73;38.28;102430.92;113097;1242;20152;-70
2022/01/18 11:45:17;;;;;;;;;99.00;80.00;;;;;20.83;38.29;102434.63;113031;1241;22598;-70
2022/01/18 11:47:43;;;;;;;;;97.00;79.67;;;;;20.93;38.07;102432.48;113061;1242;22874;-70
2022/01/18 11:50:09;;;;;;;;;96.00;75.00;;;;;21.01;37.90;102431.67;113042;1242;18689;-71
2022/01/18 11:52:39;;;;;;;;;97.00;72.00;;;;;21.07;38.03;102432.67;113013;1241;19551;-71